Time;durP1;ratioP1;P1;durP2;ratioP2;P2;SDS_P1;SDS_P2;PMS_P1;PMS_P2;Temp;Humidity;BMP_temperature;BMP_pressure;BME280_temperature;BME280_humidity;BME280_pressure;Samples;Min_cycle;Max_cycle;Signal;HPM_P1;HPM_P2
2022/07/29 00:01:26;;;;;;;2.40;1.80;;;19.30;63.30;;;15.37;88.23;95469.03;4935650;29;20378;-48
2022/07/29 00:03:54;;;;;;;2.65;2.00;;;19.30;63.40;;;15.34;88.83;95461.56;4935790;29;20098;-51
2022/07/29 00:06:20;;;;;;;5.40;1.95;;;19.20;63.50;;;15.32;88.55;95466.41;4934215;29;20066;-47
2022/07/29 00:08:47;;;;;;;2.67;1.92;;;19.20;63.60;;;15.27;88.34;95471.91;4934557;29;20023;-48
2022/07/29 00:11:31;;;;;;;2.55;2.10;;;19.10;63.60;;;15.22;88.73;95469.31;4918669;29;20478;-52
2022/07/29 00:14:00;;;;;;;2.10;1.90;;;19.10;64.10;;;15.18;89.35;95471.00;4935477;29;20099;-52
2022/07/29 00:16:32;;;;;;;3.97;2.00;;;19.10;64.00;;;15.13;89.37;95460.34;4918020;29;20039;-50
2022/07/29 00:19:06;;;;;;;2.13;1.85;;;19.00;64.10;;;15.13;89.22;95450.41;4918337;29;20019;-52
2022/07/29 00:21:35;;;;;;;3.58;2.10;;;19.00;64.20;;;15.11;89.20;95452.59;4918562;29;20031;-50
2022/07/29 00:24:05;;;;;;;2.35;2.00;;;19.00;64.20;;;15.10;89.25;95463.63;4934166;29;20023;-53
2022/07/29 00:26:33;;;;;;;2.78;2.35;;;19.00;64.30;;;15.06;89.65;95462.63;4934870;29;20030;-48
2022/07/29 00:29:05;;;;;;;3.25;1.95;;;19.00;64.50;;;15.04;90.01;95453.00;4934535;29;20027;-48
2022/07/29 00:31:34;;;;;;;2.17;1.90;;;18.90;64.60;;;15.07;89.36;95453.47;4918888;29;20386;-50
2022/07/29 00:37:03;;;;;;;2.30;1.80;;;18.90;64.70;;;15.03;89.65;95451.38;4934678;29;20038;-49
2022/07/29 00:39:34;;;;;;;1.58;1.48;;;19.00;64.50;;;15.02;89.81;95455.16;4918439;29;20042;-48
2022/07/29 00:42:07;;;;;;;2.83;2.03;;;18.90;64.80;;;15.02;89.88;95452.50;4918307;29;20066;-46
2022/07/29 00:44:41;;;;;;;3.67;2.15;;;18.90;64.80;;;15.01;89.48;95447.41;4917874;29;20518;-46
2022/07/29 00:47:12;;;;;;;2.72;2.00;;;18.90;64.90;;;14.95;90.10;95448.63;4917356;29;20041;-48
2022/07/29 00:49:41;;;;;;;2.30;2.08;;;18.90;64.80;;;14.95;90.32;95443.25;4916952;29;20561;-48
2022/07/29 00:52:11;;;;;;;3.78;2.13;;;18.90;64.90;;;14.96;90.20;95445.63;4934957;29;20031;-49
2022/07/29 00:54:49;;;;;;;3.38;2.20;;;18.90;65.10;;;15.00;89.92;95443.13;4902006;29;20050;-51
2022/07/29 00:57:18;;;;;;;3.60;2.00;;;18.90;65.30;;;14.99;89.69;95426.25;4933583;29;20530;-47
2022/07/29 00:59:46;;;;;;;2.72;1.90;;;18.90;65.00;;;14.97;90.26;95431.09;4922762;29;20470;-49
2022/07/29 01:02:15;;;;;;;3.33;2.10;;;18.90;65.00;;;15.00;90.44;95427.84;4933490;29;20027;-49
2022/07/29 01:04:51;;;;;;;2.85;1.50;;;18.90;65.30;;;15.06;90.24;95422.38;4934768;29;20458;-49
2022/07/29 01:07:33;;;;;;;2.60;2.17;;;19.00;65.40;;;15.12;90.00;95418.53;4918147;29;20031;-49
2022/07/29 01:10:06;;;;;;;2.28;1.75;;;19.00;65.30;;;15.14;90.00;95413.66;4933635;29;20382;-46
2022/07/29 01:12:38;;;;;;;2.22;1.80;;;19.00;66.00;;;15.18;89.84;95412.75;4933533;29;20039;-48
2022/07/29 01:15:08;;;;;;;1.88;1.77;;;19.10;65.30;;;15.22;89.47;95413.75;4932946;29;20027;-48
2022/07/29 01:18:09;;;;;;;2.25;1.60;;;19.10;65.20;;;15.26;89.53;95412.09;4933493;29;20058;-50
2022/07/29 01:21:04;;;;;;;2.20;1.83;;;19.20;65.40;;;15.35;89.58;95409.47;4934493;29;20023;-50
2022/07/29 01:24:42;;;;;;;2.75;1.58;;;19.20;65.30;;;15.46;88.48;95413.56;4893619;29;20038;-52
2022/07/29 01:28:20;;;;;;;2.15;1.70;;;19.30;65.10;;;15.61;88.11;95417.03;4933781;29;20023;-51
2022/07/29 01:30:58;;;;;;;1.77;1.40;;;19.40;65.00;;;15.65;87.58;95421.50;4934271;29;20061;-51
2022/07/29 01:36:44;;;;;;;1.88;1.48;;;19.50;64.80;;;15.73;87.49;95404.72;4932904;29;20133;-48
2022/07/29 01:39:32;;;;;;;2.05;1.52;;;19.60;64.70;;;15.80;87.33;95406.19;4934166;29;20027;-50
2022/07/29 01:42:41;;;;;;;1.60;1.50;;;19.60;64.70;;;15.84;86.93;95401.81;4917783;29;20022;-49
2022/07/29 01:45:38;;;;;;;2.50;1.52;;;19.70;64.70;;;15.85;87.03;95403.38;4933291;29;20023;-50
2022/07/29 01:48:36;;;;;;;2.17;1.27;;;19.70;64.50;;;15.85;86.66;95400.69;4933042;29;20501;-48
2022/07/29 01:51:50;;;;;;;2.50;1.50;;;19.80;64.40;;;15.90;85.71;95401.38;4918095;29;20102;-51
2022/07/29 01:54:35;;;;;;;3.15;1.40;;;19.70;64.20;;;15.96;85.56;95407.44;4916642;29;20110;-49
2022/07/29 01:57:10;;;;;;;2.60;1.50;;;19.80;64.10;;;15.97;85.08;95406.34;4928680;29;20050;-51
2022/07/29 01:59:38;;;;;;;2.80;1.52;;;19.80;64.10;;;16.00;85.17;95407.63;4913758;29;20399;-51
2022/07/29 02:02:10;;;;;;;1.67;1.33;;;19.80;63.90;;;15.99;84.65;95401.47;4913473;29;20020;-45
2022/07/29 02:04:42;;;;;;;1.63;1.40;;;19.80;64.00;;;15.99;84.94;95398.78;4913385;29;20028;-46
2022/07/29 02:07:21;;;;;;;3.35;1.65;;;19.80;63.80;;;15.97;84.73;95406.34;4913749;29;20082;-48
2022/07/29 02:10:04;;;;;;;1.30;1.20;;;19.80;64.00;;;15.94;84.24;95418.47;4913487;29;20387;-48
2022/07/29 02:12:33;;;;;;;;;;;19.80;63.90;;;15.86;84.79;95413.84;4913759;29;20223;-48
2022/07/29 02:15:08;;;;;;;2.17;1.40;;;19.80;63.20;;;15.81;84.59;95413.16;4928537;29;19934;-47
2022/07/29 02:17:48;;;;;;;2.72;1.60;;;19.70;63.40;;;15.77;84.56;95420.22;4913174;29;20043;-47
2022/07/29 02:20:26;;;;;;;4.30;2.10;;;19.70;63.50;;;15.74;84.92;95416.25;4913896;29;20050;-48
2022/07/29 02:22:58;;;;;;;2.33;1.48;;;19.70;63.60;;;15.69;85.21;95417.13;4913019;29;20061;-52
2022/07/29 02:25:26;;;;;;;2.03;1.40;;;19.70;63.70;;;15.63;85.55;95407.56;4912560;29;20031;-47
2022/07/29 02:28:00;;;;;;;2.65;1.38;;;19.60;63.50;;;15.60;85.70;95423.47;4913080;29;20040;-48
2022/07/29 02:30:31;;;;;;;2.53;1.50;;;19.60;63.70;;;15.56;85.91;95417.13;4913404;29;20024;-48
2022/07/29 02:33:06;;;;;;;3.25;1.58;;;19.50;63.70;;;15.55;86.09;95418.22;4913059;29;20639;-48
2022/07/29 02:35:36;;;;;;;3.53;1.45;;;19.50;63.80;;;15.54;86.00;95413.94;4912605;29;20019;-47
2022/07/29 02:40:55;;;;;;;4.53;1.67;;;19.50;63.90;;;15.44;86.71;95409.56;4914158;29;20410;-49
2022/07/29 02:43:27;;;;;;;2.55;1.38;;;19.40;63.80;;;15.40;87.32;95417.44;4912945;29;20094;-46
2022/07/29 02:45:56;;;;;;;;;;;19.40;64.10;;;15.41;86.86;95415.53;4913008;29;20031;-45
2022/07/29 02:48:40;;;;;;;3.33;1.50;;;19.30;63.50;;;15.35;87.32;95411.38;4912297;29;19922;-48
2022/07/29 02:51:28;;;;;;;3.53;1.20;;;19.30;64.00;;;15.30;87.55;95412.28;4913932;29;20023;-47
2022/07/29 02:54:01;;;;;;;2.08;1.60;;;19.30;64.20;;;15.26;87.43;95408.56;4913780;29;20027;-47
2022/07/29 02:56:34;;;;;;;2.78;1.45;;;19.30;64.10;;;15.18;87.50;95403.91;4912217;29;20039;-48
2022/07/29 02:59:11;;;;;;;2.47;1.50;;;19.20;64.30;;;15.12;88.11;95403.22;4897347;29;20051;-52
2022/07/29 03:01:43;;;;;;;2.22;1.45;;;19.20;64.40;;;15.14;87.86;95395.69;4928352;29;20027;-52
2022/07/29 03:04:13;;;;;;;4.20;1.95;;;19.10;64.60;;;15.13;88.25;95406.69;4928431;29;20025;-49
2022/07/29 03:06:42;;;;;;;4.93;1.92;;;19.10;64.60;;;15.11;88.27;95411.56;4913099;29;20099;-49
2022/07/29 03:09:19;;;;;;;1.92;1.60;;;19.10;64.70;;;15.10;88.25;95418.00;4896899;29;20035;-52
2022/07/29 03:11:48;;;;;;;2.33;1.38;;;19.10;65.00;;;15.08;88.38;95410.28;4912691;29;20110;-50
2022/07/29 03:14:25;;;;;;;1.60;1.50;;;19.10;64.90;;;15.10;88.20;95408.06;4928661;29;20059;-48
2022/07/29 03:16:55;;;;;;;3.38;1.48;;;19.10;65.10;;;15.08;88.72;95412.97;4911923;29;20066;-50
2022/07/29 03:19:28;;;;;;;2.15;1.40;;;19.10;65.10;;;15.08;88.96;95420.22;4911862;29;20027;-51
2022/07/29 03:21:58;;;;;;;1.60;1.50;;;19.10;65.20;;;15.13;88.67;95420.09;4913677;29;20035;-48
2022/07/29 03:24:37;;;;;;;1.60;1.50;;;19.10;65.20;;;15.16;88.26;95424.88;4927821;29;20126;-48
2022/07/29 03:27:05;;;;;;;3.55;1.42;;;19.10;65.40;;;15.17;88.13;95424.59;4912942;29;20067;-48
2022/07/29 03:29:34;;;;;;;4.20;1.70;;;19.10;65.20;;;15.19;88.20;95427.75;4913869;29;20391;-48
2022/07/29 03:32:06;;;;;;;2.28;1.50;;;19.20;65.40;;;15.22;87.48;95429.84;4897081;29;20039;-48
2022/07/29 03:34:31;;;;;;;2.08;1.80;;;19.20;65.30;;;15.28;87.58;95436.72;4913341;29;20028;-51
2022/07/29 03:37:05;;;;;;;1.48;1.30;;;19.20;65.20;;;15.35;86.40;95443.56;4913455;29;20039;-49
2022/07/29 03:39:40;;;;;;;2.97;1.60;;;19.30;65.20;;;15.55;85.35;95445.88;4912539;29;20032;-46
2022/07/29 03:42:13;;;;;;;1.45;1.30;;;19.40;65.30;;;15.65;85.95;95444.88;4927949;29;20042;-51
2022/07/29 03:44:47;;;;;;;1.40;1.30;;;19.40;65.10;;;15.70;85.52;95444.81;4912031;29;20028;-48
2022/07/29 03:47:25;;;;;;;2.30;1.55;;;19.50;65.00;;;15.73;85.87;95446.84;4927880;29;20045;-53
2022/07/29 03:50:05;;;;;;;5.03;1.60;;;19.60;65.00;;;15.70;86.26;95445.59;4927538;29;20070;-51
2022/07/29 03:52:35;;;;;;;2.88;1.40;;;19.60;64.90;;;15.69;85.01;95443.19;4913694;29;20427;-54
2022/07/29 03:55:06;;;;;;;1.67;1.42;;;19.70;64.60;;;15.75;84.47;95433.94;4896340;29;20558;-44
2022/07/29 03:57:44;;;;;;;1.50;1.40;;;19.70;64.50;;;15.86;84.33;95445.28;4911958;29;20043;-43
2022/07/29 04:00:20;;;;;;;1.35;1.17;;;19.70;64.50;;;15.92;83.88;95444.88;4913676;29;20115;-46
2022/07/29 04:02:52;;;;;;;2.13;1.27;;;19.80;64.40;;;15.99;82.48;95436.38;4913251;29;20032;-46
2022/07/29 04:05:21;;;;;;;1.98;1.02;;;19.80;64.10;;;16.08;82.79;95431.09;4912704;29;20487;-44
2022/07/29 04:07:50;;;;;;;2.63;1.10;;;19.90;64.00;;;16.12;82.81;95437.44;4911887;29;20031;-43
2022/07/29 04:10:18;;;;;;;2.03;1.20;;;20.00;64.00;;;16.13;81.86;95431.75;4912037;29;20074;-43
2022/07/29 04:12:49;;;;;;;1.63;1.48;;;20.00;63.70;;;16.16;81.68;95417.72;4912998;29;20032;-42
2022/07/29 04:15:15;;;;;;;1.80;1.52;;;20.00;63.50;;;16.25;81.42;95425.88;4911792;29;20031;-43
2022/07/29 04:17:50;;;;;;;1.38;1.20;;;20.00;63.30;;;16.32;81.03;95428.13;4911728;29;20160;-46
2022/07/29 04:20:17;;;;;;;1.42;1.30;;;20.20;63.40;;;16.39;80.84;95420.44;4913153;29;20229;-45
2022/07/29 04:22:42;;;;;;;2.47;1.30;;;20.20;63.20;;;16.41;80.99;95415.53;4912756;29;20493;-45
2022/07/29 04:25:14;;;;;;;1.83;1.38;;;20.20;63.00;;;16.45;80.90;95429.94;4927121;29;20144;-46
2022/07/29 04:30:36;;;;;;;2.78;1.20;;;20.30;62.90;;;16.45;80.42;95438.03;4913081;29;20030;-45
2022/07/29 04:33:07;;;;;;;3.20;1.48;;;20.40;62.70;;;16.44;80.51;95439.13;4930088;29;20024;-44
2022/07/29 04:35:38;;;;;;;2.58;1.50;;;20.40;62.70;;;16.48;80.21;95431.25;4930406;29;20035;-45
2022/07/29 04:38:06;;;;;;;3.95;1.60;;;20.40;62.40;;;16.48;81.28;95431.25;4916501;29;20451;-48
2022/07/29 04:40:35;;;;;;;1.40;1.30;;;20.40;62.40;;;16.43;81.01;95430.28;4931071;29;20050;-43
2022/07/29 04:43:02;;;;;;;2.65;1.10;;;20.40;62.40;;;16.43;80.99;95434.84;4915009;29;20110;-46
2022/07/29 04:45:31;;;;;;;2.72;1.40;;;20.40;62.20;;;16.45;80.91;95437.22;4914166;29;20044;-44
2022/07/29 04:48:06;;;;;;;2.30;1.30;;;20.50;62.20;;;16.41;79.23;95437.84;4930739;29;20038;-44
2022/07/29 04:50:39;;;;;;;3.17;1.40;;;20.50;62.00;;;16.50;79.50;95437.13;4930755;29;20024;-48
2022/07/29 04:53:11;;;;;;;1.63;1.35;;;20.50;61.90;;;16.53;79.46;95434.59;4930654;29;20455;-45
2022/07/29 04:55:37;;;;;;;2.28;1.55;;;20.60;61.80;;;16.58;79.49;95431.03;4929508;29;20083;-50
2022/07/29 04:58:07;;;;;;;2.50;1.33;;;20.60;61.60;;;16.58;79.58;95431.03;4914756;29;20319;-45
2022/07/29 05:00:36;;;;;;;1.75;1.30;;;20.70;62.30;;;16.59;80.88;95433.38;4915724;29;20034;-43
2022/07/29 05:03:05;;;;;;;1.95;1.45;;;20.70;61.50;;;16.63;79.98;95420.91;4914599;29;20039;-46
2022/07/29 05:05:34;;;;;;;2.55;1.30;;;20.80;61.30;;;16.69;78.93;95418.91;4930169;29;20094;-46
2022/07/29 05:08:00;;;;;;;1.58;1.40;;;20.80;61.10;;;16.74;79.42;95410.72;4915666;29;20442;-44
2022/07/29 05:10:37;;;;;;;2.38;1.40;;;20.90;61.00;;;16.81;77.66;95416.47;4898677;29;20019;-47
2022/07/29 05:13:07;;;;;;;4.47;1.58;;;21.00;60.80;;;16.92;78.05;95429.66;4916071;29;20055;-44
2022/07/29 05:15:37;;;;;;;1.65;1.40;;;21.10;60.60;;;16.98;77.96;95431.91;4915194;29;20028;-43
2022/07/29 05:18:07;;;;;;;2.35;1.48;;;21.20;60.60;;;17.05;78.10;95442.25;4915626;29;20040;-50
2022/07/29 05:20:35;;;;;;;2.22;1.30;;;21.20;60.40;;;17.05;77.33;95434.97;4930019;29;20119;-45
2022/07/29 05:23:02;;;;;;;3.28;1.40;;;21.20;60.10;;;17.11;77.88;95435.63;4914264;29;20031;-47
2022/07/29 05:25:29;;;;;;;1.90;1.33;;;21.30;60.10;;;17.14;77.64;95436.88;4913706;29;20119;-44
2022/07/29 05:27:57;;;;;;;3.08;1.67;;;21.30;60.00;;;17.16;77.43;95442.78;4915796;29;20027;-44
2022/07/29 05:30:26;;;;;;;3.00;1.25;;;21.30;59.90;;;17.13;76.66;95443.38;4914080;29;20100;-45
2022/07/29 05:32:54;;;;;;;1.50;1.40;;;21.30;59.70;;;17.13;75.74;95438.78;4929786;29;20027;-47
2022/07/29 05:35:20;;;;;;;2.47;1.70;;;21.30;59.50;;;17.21;77.04;95437.25;4819557;28;2314172;-45
2022/07/29 05:37:46;;;;;;;2.80;1.73;;;21.40;59.50;;;17.23;76.12;95437.72;4914114;29;20035;-47
2022/07/29 05:40:12;;;;;;;2.38;1.55;;;21.40;59.50;;;17.29;75.74;95450.75;4915177;29;20395;-45
2022/07/29 05:42:46;;;;;;;2.30;1.75;;;21.40;59.30;;;17.35;75.74;95454.88;4913498;29;20023;-48
2022/07/29 05:45:12;;;;;;;1.60;1.50;;;21.50;59.20;;;17.43;75.89;95457.94;4914524;29;20031;-43
2022/07/29 05:47:38;;;;;;;4.00;1.50;;;21.60;59.10;;;17.45;74.81;95461.88;4929451;29;20051;-47
2022/07/29 05:50:07;;;;;;;2.60;1.50;;;21.70;59.00;;;17.53;74.70;95454.97;4915164;29;20020;-46
2022/07/29 05:52:35;;;;;;;1.60;1.25;;;21.80;58.80;;;17.68;75.24;95454.53;4913897;29;20031;-44
2022/07/29 05:55:05;;;;;;;1.73;1.50;;;21.90;58.70;;;17.79;74.82;95461.25;4913295;29;20110;-45
2022/07/29 05:57:32;;;;;;;2.22;1.40;;;22.10;58.50;;;17.92;74.51;95459.53;4929156;29;20044;-44
2022/07/29 06:00:05;;;;;;;2.63;1.50;;;22.20;58.30;;;18.06;73.93;95462.09;4897406;29;20027;-44
2022/07/29 06:02:31;;;;;;;3.45;1.77;;;22.40;58.10;;;18.20;73.19;95461.94;4914686;29;20027;-43
2022/07/29 06:05:04;;;;;;;2.92;1.50;;;22.60;57.80;;;18.41;73.92;95464.81;4914180;29;20028;-46
2022/07/29 06:07:36;;;;;;;2.08;1.40;;;22.80;57.70;;;18.76;72.44;95460.22;4913780;29;20618;-50
2022/07/29 06:10:02;;;;;;;2.58;1.70;;;23.20;57.30;;;18.97;70.98;95463.06;4913570;29;20118;-45
2022/07/29 06:12:28;;;;;;;4.93;1.83;;;23.30;57.00;;;19.19;71.12;95462.84;4929100;29;20026;-45
2022/07/29 06:14:53;;;;;;;2.22;1.45;;;23.60;56.70;;;19.36;69.77;95470.09;4913728;29;20696;-46
2022/07/29 06:17:25;;;;;;;1.65;1.50;;;23.80;56.40;;;19.51;69.92;95476.88;4928971;29;20041;-49
2022/07/29 06:19:54;;;;;;;5.43;3.88;;;23.90;56.10;;;19.62;69.67;95480.03;4929035;29;20054;-47
2022/07/29 06:22:38;;;;;;;2.40;1.77;;;24.00;55.90;;;19.75;69.34;95483.66;4928913;29;20177;-46
2022/07/29 06:25:04;;;;;;;3.55;1.70;;;24.20;55.60;;;19.83;68.25;95477.41;4913816;29;20030;-49
2022/07/29 06:27:33;;;;;;;2.92;1.40;;;24.40;55.20;;;19.91;68.10;95484.69;4913079;29;20031;-45
2022/07/29 06:30:06;;;;;;;1.88;1.63;;;24.50;54.90;;;19.99;67.69;95486.53;4929070;29;20043;-46
2022/07/29 06:32:33;;;;;;;2.58;1.55;;;24.60;54.50;;;20.15;67.00;95488.66;4914455;29;20059;-46
2022/07/29 06:35:18;;;;;;;2.90;1.70;;;24.80;54.30;;;20.34;66.51;95489.03;4912878;29;20051;-46
2022/07/29 06:37:50;;;;;;;4.20;1.73;;;25.00;54.00;;;20.52;65.47;95506.75;4928472;29;20114;-46
2022/07/29 06:43:05;;;;;;;4.07;1.90;;;25.30;53.30;;;20.70;65.02;95518.22;4913475;29;20439;-47
2022/07/29 06:45:34;;;;;;;2.08;1.88;;;25.40;53.10;;;20.60;65.22;95523.25;4928157;29;20020;-48
2022/07/29 06:48:04;;;;;;;3.08;1.77;;;25.40;52.90;;;20.33;65.47;95526.09;4914095;29;20497;-46
2022/07/29 06:50:30;;;;;;;6.55;1.80;;;25.30;52.70;;;20.15;66.31;95529.22;4913179;29;20083;-46
2022/07/29 06:52:56;;;;;;;4.35;1.83;;;25.10;53.00;;;20.07;66.66;95539.78;4912396;29;20032;-46
2022/07/29 06:55:25;;;;;;;9.60;1.60;;;25.00;52.50;;;20.21;67.00;95544.97;4911618;29;20030;-50
2022/07/29 06:57:59;;;;;;;3.58;2.05;;;24.90;52.80;;;20.11;67.23;95550.72;4932574;29;20101;-50
2022/07/29 07:00:30;;;;;;;4.10;1.90;;;24.70;52.80;;;19.92;68.02;95564.66;4931523;29;20023;-46
2022/07/29 07:03:03;;;;;;;3.80;1.80;;;24.60;53.00;;;19.84;68.58;95568.19;4931150;29;20034;-45
2022/07/29 07:05:35;;;;;;;4.20;1.67;;;24.50;53.20;;;19.80;69.07;95561.84;4915311;29;20529;-46
2022/07/29 07:08:04;;;;;;;2.00;1.80;;;24.40;53.50;;;19.83;69.29;95561.19;4931516;29;20039;-48
2022/07/29 07:10:30;;;;;;;3.03;1.73;;;24.20;53.80;;;19.72;69.92;95568.06;4931647;29;20053;-49
2022/07/29 07:13:01;;;;;;;5.03;2.03;;;24.10;54.00;;;19.75;69.98;95562.81;4915169;29;20023;-46
2022/07/29 07:15:36;;;;;;;3.83;1.80;;;24.00;54.20;;;19.69;70.93;95568.72;4915077;29;20023;-47
2022/07/29 07:18:02;;;;;;;2.65;1.90;;;24.00;54.50;;;19.73;72.78;95561.53;4931539;29;20498;-46
2022/07/29 07:20:36;;;;;;;2.67;1.70;;;23.90;54.90;;;19.68;73.71;95556.31;4932721;29;20110;-47
2022/07/29 07:23:05;;;;;;;3.65;1.80;;;23.90;55.40;;;19.67;74.80;95560.91;4915670;29;20070;-45
2022/07/29 07:25:35;;;;;;;4.45;2.08;;;23.80;55.80;;;19.62;75.15;95553.75;4914921;29;20023;-49
2022/07/29 07:28:07;;;;;;;3.70;2.25;;;23.70;56.20;;;19.53;75.63;95563.81;4915821;29;20390;-47
2022/07/29 07:30:33;;;;;;;3.33;2.47;;;23.60;56.60;;;19.48;76.98;95558.56;4932607;29;20490;-46
2022/07/29 07:33:02;;;;;;;3.72;1.83;;;23.60;56.90;;;19.43;77.55;95553.34;4909806;29;20129;-52
2022/07/29 07:35:29;;;;;;;2.67;2.33;;;23.50;57.20;;;19.27;78.70;95542.22;4922844;29;20382;-44
2022/07/29 07:37:59;;;;;;;4.25;2.40;;;23.40;57.50;;;19.11;79.47;95547.34;4929222;29;20035;-43
2022/07/29 07:40:34;;;;;;;3.50;2.40;;;23.30;57.90;;;19.03;80.51;95550.06;4927098;29;20424;-45
2022/07/29 07:43:09;;;;;;;3.53;2.20;;;23.30;58.30;;;18.87;81.63;95531.66;4927780;29;20051;-44
2022/07/29 07:45:39;;;;;;;3.47;2.42;;;23.20;58.50;;;18.55;79.69;95513.22;4928686;29;20026;-46
2022/07/29 07:48:11;;;;;;;3.28;2.55;;;23.00;58.30;;;18.56;81.01;95515.59;4913287;29;20027;-45
2022/07/29 07:50:37;;;;;;;5.75;2.45;;;22.90;58.70;;;18.59;80.75;95522.28;4913697;29;20050;-48
2022/07/29 07:53:16;;;;;;;3.80;2.70;;;22.90;58.70;;;18.55;80.39;95530.22;4930752;29;20122;-47
2022/07/29 07:55:45;;;;;;;3.08;2.53;;;22.80;59.00;;;18.49;81.24;95516.06;4931127;29;20047;-46
2022/07/29 07:58:13;;;;;;;3.60;2.72;;;22.80;59.00;;;18.48;81.96;95513.69;4931039;29;20035;-44
2022/07/29 08:00:39;;;;;;;4.00;2.85;;;22.80;59.20;;;18.47;81.87;95529.06;4932341;29;20015;-44
2022/07/29 08:03:05;;;;;;;3.00;2.45;;;22.90;59.40;;;18.45;81.05;95546.69;4914860;29;20101;-44
2022/07/29 08:05:36;;;;;;;5.43;3.10;;;22.90;59.20;;;18.52;83.20;95554.28;4930828;29;20471;-46
2022/07/29 08:08:06;;;;;;;4.72;3.30;;;22.90;59.50;;;18.59;84.59;95560.81;4936094;29;20039;-45
2022/07/29 08:10:55;;;;;;;6.20;3.25;;;23.00;60.10;;;18.69;85.30;95570.50;4918996;29;20043;-44
2022/07/29 08:13:27;;;;;;;3.53;3.10;;;23.00;60.40;;;18.67;85.33;95576.22;4934562;29;20124;-44
2022/07/29 08:18:40;;;;;;;4.55;3.22;;;23.00;60.50;;;18.61;85.26;95565.88;4935782;29;20151;-45
2022/07/29 08:21:07;;;;;;;6.45;3.35;;;23.00;60.70;;;18.74;85.07;95570.41;4935944;29;20486;-45
2022/07/29 08:23:52;;;;;;;6.25;3.63;;;23.00;60.90;;;18.75;83.95;95574.69;4902699;29;20035;-45
2022/07/29 08:26:22;;;;;;;7.00;3.33;;;23.20;61.20;;;18.78;84.92;95567.84;4918964;29;20506;-46
2022/07/29 08:28:50;;;;;;;5.20;3.30;;;23.20;61.10;;;18.88;84.92;95573.72;4935761;29;20042;-50
2022/07/29 08:31:17;;;;;;;4.25;2.90;;;23.20;61.30;;;18.98;84.67;95569.13;4935490;29;20030;-44
2022/07/29 08:33:47;;;;;;;4.53;3.08;;;23.20;61.30;;;18.98;84.51;95572.59;4934018;29;20030;-44
2022/07/29 08:36:13;;;;;;;7.20;2.72;;;23.20;61.40;;;18.95;83.09;95574.03;4933363;29;20105;-44
2022/07/29 08:38:39;;;;;;;5.38;2.75;;;23.20;61.30;;;18.91;82.57;95581.19;4934941;29;20030;-46
2022/07/29 08:41:05;;;;;;;7.57;2.97;;;23.20;61.10;;;18.93;82.93;95588.97;4918314;29;20019;-46
2022/07/29 08:43:34;;;;;;;5.03;2.97;;;23.20;61.30;;;18.94;83.58;95579.75;4918341;29;20035;-47
2022/07/29 08:46:00;;;;;;;8.60;3.25;;;23.20;61.60;;;18.95;83.60;95581.34;4935182;29;20015;-47
2022/07/29 08:48:26;;;;;;;3.90;2.58;;;23.10;61.50;;;18.89;83.39;95577.22;4934994;29;20085;-43
2022/07/29 08:51:00;;;;;;;2.65;2.10;;;23.10;61.60;;;18.87;82.25;95595.63;4934886;29;20027;-47
2022/07/29 08:53:28;;;;;;;4.82;2.60;;;23.10;61.50;;;18.91;83.46;95600.06;4933633;29;20035;-44
2022/07/29 08:55:59;;;;;;;6.10;2.97;;;23.10;61.80;;;18.96;83.42;95593.75;4911696;29;20042;-46
2022/07/29 08:58:31;;;;;;;8.23;2.78;;;23.20;61.90;;;18.92;84.18;95598.94;4914845;29;20501;-45
2022/07/29 09:01:00;;;;;;;4.70;2.95;;;23.30;61.80;;;19.07;85.34;95592.28;4915205;29;20023;-46
2022/07/29 09:03:39;;;;;;;3.58;3.08;;;23.50;61.80;;;19.31;85.52;95596.41;4914783;29;20131;-46
2022/07/29 09:06:06;;;;;;;3.67;3.13;;;23.80;61.90;;;19.63;83.87;95598.56;4929911;29;20030;-48
2022/07/29 09:08:33;;;;;;;3.78;2.65;;;24.30;61.20;;;20.13;82.10;95593.69;4930728;29;20035;-44
2022/07/29 09:11:03;;;;;;;4.85;2.70;;;24.90;60.60;;;20.43;81.11;95597.16;4930821;29;20023;-45
2022/07/29 09:13:29;;;;;;;6.05;2.50;;;25.40;60.70;;;20.64;77.19;95584.50;4915745;29;20051;-46
2022/07/29 09:16:01;;;;;;;3.50;2.67;;;25.90;59.10;;;20.97;75.90;95592.72;4929924;29;20120;-43
2022/07/29 09:18:48;;;;;;;3.80;2.50;;;26.30;58.40;;;21.36;72.70;95584.44;4929493;29;20039;-44
2022/07/29 09:24:13;;;;;;;5.68;4.10;;;27.30;56.50;;;22.32;71.06;95590.41;4928256;29;20114;-44
2022/07/29 09:26:45;;;;;;;3.78;2.90;;;28.10;55.50;;;22.65;70.74;95592.19;4915395;29;20363;-46
2022/07/29 09:29:20;;;;;;;3.25;2.67;;;28.50;54.80;;;23.09;69.02;95589.63;4885738;29;22517;-47
2022/07/29 09:31:52;;;;;;;3.88;2.53;;;28.80;54.40;;;23.17;68.22;95591.41;4914493;29;20058;-46
2022/07/29 09:34:28;;;;;;;8.38;2.55;;;29.10;53.60;;;23.31;62.93;95597.25;4930311;29;20027;-49
2022/07/29 09:37:00;;;;;;;6.32;2.88;;;29.20;52.40;;;23.66;66.08;95593.94;4914671;29;20779;-45
2022/07/29 09:39:45;;;;;;;2.90;2.70;;;29.40;52.10;;;23.91;62.29;95591.09;4930254;29;20024;-45
2022/07/29 09:42:29;;;;;;;3.08;2.72;;;29.70;51.30;;;24.42;60.99;95586.56;4914311;29;20027;-46
2022/07/29 09:45:08;;;;;;;4.60;3.28;;;30.30;50.80;;;24.97;60.68;95586.59;4914114;29;20027;-49
2022/07/29 09:48:17;;;;;;;4.68;3.35;;;30.80;49.60;;;24.82;57.39;95592.88;4913878;29;20019;-54
2022/07/29 09:50:48;;;;;;;4.45;3.10;;;31.20;48.90;;;24.72;58.87;95586.06;4919889;29;20052;-43
2022/07/29 09:53:36;;;;;;;4.88;3.58;;;31.20;48.00;;;25.03;56.75;95573.47;4927757;29;20028;-45
2022/07/29 09:56:05;;;;;;;4.47;3.15;;;31.30;48.00;;;25.22;58.22;95575.44;4945172;23;20058;-43
2022/07/29 09:58:34;;;;;;;4.85;3.22;;;31.40;47.60;;;25.36;58.07;95576.53;4968885;28;20026;-43
2022/07/29 10:01:03;;;;;;;3.97;3.10;;;31.60;47.30;;;25.64;56.79;95574.72;4966396;28;20295;-43
2022/07/29 10:03:30;;;;;;;5.32;3.33;;;31.80;46.70;;;25.74;53.08;95579.56;4965530;28;20072;-42
2022/07/29 10:06:13;;;;;;;3.78;3.47;;;32.10;45.50;;;25.84;54.91;95570.81;4977894;28;20037;-43
2022/07/29 10:08:41;;;;;;;5.65;3.65;;;32.30;44.70;;;25.91;53.62;95572.88;4986128;28;20027;-46
2022/07/29 10:11:27;;;;;;;6.15;3.47;;;32.40;44.20;;;26.16;53.23;95562.38;4954197;28;20033;-46
2022/07/29 10:14:06;;;;;;;4.18;3.60;;;32.60;44.10;;;26.29;54.44;95569.22;4952121;28;20112;-51
2022/07/29 10:16:32;;;;;;;3.80;3.50;;;32.70;43.80;;;26.44;53.20;95562.81;4968786;28;20109;-46
2022/07/29 10:19:04;;;;;;;4.45;3.20;;;32.80;43.60;;;26.68;51.61;95555.41;4969965;28;20476;-48
2022/07/29 10:21:32;;;;;;;4.15;3.53;;;32.90;42.90;;;26.92;49.71;95560.44;4970324;28;20109;-45
2022/07/29 10:24:02;;;;;;;4.72;4.00;;;33.30;42.30;;;26.99;50.17;95546.06;4966675;28;20030;-46
2022/07/29 10:26:30;;;;;;;4.03;3.33;;;33.70;41.70;;;27.45;50.46;95545.84;4970558;28;20026;-46
2022/07/29 10:28:56;;;;;;;5.38;3.47;;;34.00;41.10;;;27.76;49.05;95546.53;4971934;28;20058;-45
2022/07/29 10:31:43;;;;;;;5.30;3.63;;;34.30;40.80;;;27.82;47.54;95548.59;4971700;28;20057;-50
2022/07/29 10:35:23;;;;;;;5.38;3.70;;;34.40;40.60;;;28.19;47.84;95547.75;4955557;28;20029;-46
2022/07/29 10:38:54;;;;;;;3.88;3.50;;;34.90;40.10;;;28.24;47.67;95555.63;4970495;28;20049;-46
2022/07/29 10:41:38;;;;;;;4.07;3.40;;;35.20;39.50;;;28.50;47.77;95551.91;4972126;28;20022;-45
2022/07/29 10:44:09;;;;;;;4.63;3.55;;;35.30;38.90;;;28.29;47.10;95552.50;4972108;28;20029;-45
2022/07/29 10:46:40;;;;;;;4.28;3.60;;;35.30;38.60;;;28.29;47.77;95543.50;4970272;28;20030;-49
2022/07/29 10:49:29;;;;;;;5.53;3.75;;;35.20;38.40;;;28.58;44.76;95539.03;4972117;28;20384;-46
2022/07/29 10:52:14;;;;;;;4.80;4.20;;;35.20;38.10;;;28.98;43.40;95532.59;4971732;28;20041;-46
2022/07/29 10:54:48;;;;;;;4.75;4.18;;;35.60;37.60;;;29.19;44.97;95536.66;4970386;28;20030;-45
2022/07/29 10:57:31;;;;;;;5.28;4.40;;;36.00;37.40;;;29.54;47.12;95530.47;4969842;28;20483;-48
2022/07/29 11:00:27;;;;;;;5.43;4.00;;;36.50;36.90;;;29.87;42.33;95534.88;4972368;28;20440;-46
2022/07/29 11:03:00;;;;;;;6.05;4.47;;;36.90;36.20;;;29.67;43.11;95536.41;4970251;28;20030;-46
2022/07/29 11:05:29;;;;;;;4.45;4.05;;;37.10;35.60;;;30.14;42.69;95535.28;4970844;28;20022;-47
2022/07/29 11:08:13;;;;;;;4.32;3.85;;;37.30;35.10;;;30.01;44.07;95541.56;4966883;28;20042;-50